createdAt,value
2018-11-14T00:00:42.591Z,950.81
2018-11-14T00:01:43.942Z,950.79
2018-11-14T00:02:44.572Z,950.81
2018-11-14T00:03:45.369Z,950.83
2018-11-14T00:04:46.447Z,950.77
2018-11-14T00:05:47.964Z,950.81
2018-11-14T00:06:48.758Z,950.81
2018-11-14T00:07:49.670Z,950.82
2018-11-14T00:08:50.629Z,950.81
2018-11-14T00:09:51.984Z,950.81
2018-11-14T00:10:53.137Z,950.77
2018-11-14T00:11:54.254Z,950.77
2018-11-14T00:12:54.775Z,950.78
2018-11-14T00:13:55.399Z,950.79
2018-11-14T00:14:55.918Z,950.8
2018-11-14T00:15:56.720Z,950.73
2018-11-14T00:16:58.064Z,950.75
2018-11-14T00:17:58.858Z,950.68
2018-11-14T00:18:59.655Z,950.71
2018-11-14T00:20:00.170Z,950.7
2018-11-14T00:21:00.467Z,950.71
2018-11-14T00:22:01.822Z,950.69
2018-11-14T00:23:02.618Z,950.69
2018-11-14T00:24:03.812Z,950.69
2018-11-14T00:25:04.442Z,950.67
2018-11-14T00:26:05.081Z,950.64
2018-11-14T00:27:05.600Z,950.68
2018-11-14T00:28:06.676Z,950.63
2018-11-14T00:29:07.471Z,950.63
2018-11-14T00:30:08.553Z,950.63
2018-11-14T00:31:08.982Z,950.58
2018-11-14T00:32:09.783Z,950.56
2018-11-14T00:33:10.608Z,950.55
2018-11-14T00:34:11.947Z,950.55
2018-11-14T00:35:13.298Z,950.55
2018-11-14T00:36:14.098Z,950.54
2018-11-14T00:37:15.175Z,950.51
2018-11-14T00:38:16.247Z,950.52
2018-11-14T00:39:17.041Z,950.5
2018-11-14T00:40:17.556Z,950.5
2018-11-14T00:41:17.958Z,950.49
2018-11-14T00:42:18.583Z,950.5
2018-11-14T00:43:19.099Z,950.44
2018-11-14T00:44:20.339Z,950.46
2018-11-14T00:45:21.579Z,950.43
2018-11-14T00:46:22.379Z,950.38
2018-11-14T00:47:23.014Z,950.4
2018-11-14T00:48:23.530Z,950.36
2018-11-14T00:49:24.050Z,950.35
2018-11-14T00:50:24.569Z,950.29
2018-11-14T00:51:24.962Z,950.29
2018-11-14T00:52:25.479Z,950.28
2018-11-14T00:53:26.280Z,950.24
2018-11-14T00:54:26.627Z,950.26
2018-11-14T00:55:27.424Z,950.27
2018-11-14T00:56:27.945Z,950.26
2018-11-14T00:57:28.461Z,950.22
2018-11-14T00:58:29.534Z,950.26
2018-11-14T00:59:30.605Z,950.25
2018-11-14T01:00:31.847Z,950.21
2018-11-14T01:01:33.504Z,950.23
2018-11-14T01:02:35.637Z,950.2
2018-11-14T01:03:35.738Z,950.21
2018-11-14T01:04:36.537Z,950.16
2018-11-14T01:05:37.337Z,950.15
2018-11-14T01:06:37.852Z,950.14
2018-11-14T01:07:38.385Z,950.12
2018-11-14T01:08:38.892Z,950.12
2018-11-14T01:09:39.408Z,950.13
2018-11-14T01:10:40.760Z,950.07
2018-11-14T01:11:41.348Z,950.09
2018-11-14T01:12:42.146Z,950.13
2018-11-14T01:13:43.219Z,950.09
2018-11-14T01:14:44.293Z,950.08
2018-11-14T01:15:44.808Z,950.07
2018-11-14T01:16:45.877Z,950.06
2018-11-14T01:17:46.953Z,950.01
2018-11-14T01:18:48.366Z,950
2018-11-14T01:19:48.719Z,949.99
2018-11-14T01:20:49.071Z,950
2018-11-14T01:21:49.924Z,950.02
2018-11-14T01:22:51.069Z,950.04
2018-11-14T01:23:51.702Z,950.01
2018-11-14T01:24:52.050Z,949.98
2018-11-14T01:25:52.854Z,949.99
2018-11-14T01:26:54.257Z,949.99
2018-11-14T01:27:55.154Z,949.96
2018-11-14T01:28:56.530Z,949.98
2018-11-14T01:29:57.606Z,949.95
2018-11-14T01:30:58.232Z,949.95
2018-11-14T01:31:59.380Z,949.91
2018-11-14T01:32:59.654Z,949.89
2018-11-14T01:34:00.884Z,949.87
2018-11-14T01:35:01.236Z,949.84
2018-11-14T01:36:02.475Z,949.82
2018-11-14T01:37:03.270Z,949.78
2018-11-14T01:38:04.065Z,949.79
2018-11-14T01:39:04.584Z,949.77
2018-11-14T01:40:04.934Z,949.78
2018-11-14T01:41:05.867Z,949.78
2018-11-14T01:42:06.788Z,949.77
2018-11-14T01:43:07.303Z,949.76
2018-11-14T01:44:08.102Z,949.74
2018-11-14T01:45:08.896Z,949.75
2018-11-14T01:46:09.692Z,949.71
2018-11-14T01:47:10.485Z,949.7
2018-11-14T01:48:11.277Z,949.65
2018-11-14T01:49:12.068Z,949.65
2018-11-14T01:50:12.861Z,949.63
2018-11-14T01:51:13.490Z,949.64
2018-11-14T01:52:14.183Z,949.65
2018-11-14T01:53:15.259Z,949.65
2018-11-14T01:54:16.331Z,949.66
2018-11-14T01:55:17.120Z,949.63
2018-11-14T01:56:17.637Z,949.65
2018-11-14T01:57:18.427Z,949.65
2018-11-14T01:58:18.940Z,949.66
2018-11-14T01:59:19.760Z,949.63
2018-11-14T02:00:20.557Z,949.63
2018-11-14T02:01:21.632Z,949.64
2018-11-14T02:02:22.051Z,949.65
2018-11-14T02:03:22.843Z,949.62
2018-11-14T02:04:24.193Z,949.64
2018-11-14T02:05:25.540Z,949.6
2018-11-14T02:06:26.053Z,949.61
2018-11-14T02:07:26.845Z,949.61
2018-11-14T02:08:27.912Z,949.58
2018-11-14T02:09:28.981Z,949.58
2018-11-14T02:10:30.329Z,949.61
2018-11-14T02:11:30.689Z,949.6
2018-11-14T02:12:31.111Z,949.54
2018-11-14T02:13:31.625Z,949.57
2018-11-14T02:14:31.970Z,949.57
2018-11-14T02:15:33.206Z,949.59
2018-11-14T02:16:34.323Z,949.59
2018-11-14T02:17:35.393Z,949.58
2018-11-14T02:18:36.015Z,949.58
2018-11-14T02:19:36.973Z,949.62
2018-11-14T02:20:37.378Z,949.58
2018-11-14T02:21:38.169Z,949.58
2018-11-14T02:22:38.729Z,949.59
2018-11-14T02:23:39.803Z,949.6
2018-11-14T02:24:40.594Z,949.58
2018-11-14T02:25:41.662Z,949.56
2018-11-14T02:26:42.014Z,949.58
2018-11-14T02:27:42.807Z,949.56
2018-11-14T02:28:43.430Z,949.55
2018-11-14T02:29:44.514Z,949.56
2018-11-14T02:30:45.578Z,949.58
2018-11-14T02:31:46.763Z,949.57
2018-11-14T02:32:48.170Z,949.59
2018-11-14T02:33:49.353Z,949.58
2018-11-14T02:34:50.660Z,949.65
2018-11-14T02:35:51.774Z,949.62
2018-11-14T02:36:52.129Z,949.61
2018-11-14T02:37:52.474Z,949.63
2018-11-14T02:38:52.988Z,949.65
2018-11-14T02:39:53.612Z,949.64
2018-11-14T02:40:53.962Z,949.68
2018-11-14T02:41:54.592Z,949.63
2018-11-14T02:42:55.568Z,949.68
2018-11-14T02:43:56.361Z,949.68
2018-11-14T02:44:56.988Z,949.68
2018-11-14T02:45:57.778Z,949.64
2018-11-14T02:46:58.125Z,949.62
2018-11-14T02:47:58.916Z,949.58
2018-11-14T02:48:59.543Z,949.56
2018-11-14T02:50:00.625Z,949.58
2018-11-14T02:51:01.693Z,949.58
2018-11-14T02:52:02.316Z,949.62
2018-11-14T02:53:02.993Z,949.65
2018-11-14T02:54:03.898Z,949.61
2018-11-14T02:55:04.239Z,949.61
2018-11-14T02:56:04.591Z,949.6
2018-11-14T02:57:05.944Z,949.64
2018-11-14T02:58:07.012Z,949.62
2018-11-14T02:59:07.653Z,949.6
2018-11-14T03:00:08.164Z,949.63
2018-11-14T03:01:08.674Z,949.61
2018-11-14T03:02:09.855Z,949.6
2018-11-14T03:03:10.995Z,949.64
2018-11-14T03:04:11.620Z,949.67
2018-11-14T03:05:11.969Z,949.68
2018-11-14T03:06:12.592Z,949.68
2018-11-14T03:07:13.104Z,949.65
2018-11-14T03:08:13.909Z,949.67
2018-11-14T03:09:15.367Z,949.64
2018-11-14T03:10:16.160Z,949.65
2018-11-14T03:11:16.945Z,949.66
2018-11-14T03:12:18.155Z,949.68
2018-11-14T03:13:19.567Z,949.65
2018-11-14T03:14:20.637Z,949.64
2018-11-14T03:15:21.436Z,949.67
2018-11-14T03:16:22.508Z,949.66
2018-11-14T03:17:23.571Z,949.6
2018-11-14T03:18:24.809Z,949.63
2018-11-14T03:19:25.598Z,949.6
2018-11-14T03:20:26.978Z,949.56
2018-11-14T03:21:28.046Z,949.55
2018-11-14T03:22:29.127Z,949.52
2018-11-14T03:23:29.881Z,949.54
2018-11-14T03:24:30.949Z,949.53
2018-11-14T03:25:32.296Z,949.54
2018-11-14T03:26:32.925Z,949.51
2018-11-14T03:27:34.004Z,949.51
2018-11-14T03:28:35.250Z,949.53
2018-11-14T03:29:36.316Z,949.53
2018-11-14T03:30:37.497Z,949.47
2018-11-14T03:31:38.122Z,949.46
2018-11-14T03:32:39.342Z,949.42
2018-11-14T03:33:40.013Z,949.41
2018-11-14T03:34:40.909Z,949.39
2018-11-14T03:35:41.979Z,949.41
2018-11-14T03:36:42.880Z,949.43
2018-11-14T03:37:43.394Z,949.4
2018-11-14T03:38:44.742Z,949.41
2018-11-14T03:39:45.248Z,949.42
2018-11-14T03:40:46.036Z,949.45
2018-11-14T03:41:46.379Z,949.47
2018-11-14T03:42:47.906Z,949.47
2018-11-14T03:43:48.299Z,949.51
2018-11-14T03:44:49.376Z,949.5
2018-11-14T03:45:49.888Z,949.46
2018-11-14T03:46:50.244Z,949.43
2018-11-14T03:47:50.868Z,949.44
2018-11-14T03:48:51.775Z,949.45
2018-11-14T03:49:52.960Z,949.45
2018-11-14T03:50:54.035Z,949.45
2018-11-14T03:51:55.111Z,949.46
2018-11-14T03:52:55.473Z,949.48
2018-11-14T03:53:56.037Z,949.5
2018-11-14T03:54:57.386Z,949.5
2018-11-14T03:55:57.903Z,949.52
2018-11-14T03:56:58.705Z,949.51
2018-11-14T03:57:59.497Z,949.53
2018-11-14T03:59:00.845Z,949.57
2018-11-14T04:00:02.033Z,949.54
2018-11-14T04:01:02.940Z,949.52
2018-11-14T04:02:04.010Z,949.49
2018-11-14T04:03:05.083Z,949.53
2018-11-14T04:04:05.638Z,949.52
2018-11-14T04:05:06.264Z,949.51
2018-11-14T04:06:07.347Z,949.5
2018-11-14T04:07:07.864Z,949.55
2018-11-14T04:08:08.654Z,949.53
2018-11-14T04:09:09.031Z,949.55
2018-11-14T04:10:09.606Z,949.5
2018-11-14T04:11:10.403Z,949.51
2018-11-14T04:12:10.918Z,949.52
2018-11-14T04:13:11.548Z,949.5
2018-11-14T04:14:12.411Z,949.51
2018-11-14T04:15:13.207Z,949.5
2018-11-14T04:16:13.570Z,949.5
2018-11-14T04:17:14.756Z,949.55
2018-11-14T04:18:16.098Z,949.55
2018-11-14T04:19:16.833Z,949.53
2018-11-14T04:20:17.903Z,949.58
2018-11-14T04:21:18.972Z,949.49
2018-11-14T04:22:19.484Z,949.57
2018-11-14T04:23:19.832Z,949.51
2018-11-14T04:24:20.232Z,949.5
2018-11-14T04:25:20.859Z,949.51
2018-11-14T04:26:22.205Z,949.5
2018-11-14T04:27:22.833Z,949.46
2018-11-14T04:28:23.736Z,949.49
2018-11-14T04:29:24.804Z,949.46
2018-11-14T04:30:26.041Z,949.46
2018-11-14T04:31:26.669Z,949.45
2018-11-14T04:32:27.744Z,949.47
2018-11-14T04:33:28.656Z,949.4
2018-11-14T04:34:29.500Z,949.41
2018-11-14T04:35:30.403Z,949.42
2018-11-14T04:36:30.748Z,949.4
2018-11-14T04:37:31.266Z,949.41
2018-11-14T04:38:31.784Z,949.48
2018-11-14T04:39:32.852Z,949.45
2018-11-14T04:40:33.195Z,949.45
2018-11-14T04:41:33.541Z,949.48
2018-11-14T04:42:34.609Z,949.46
2018-11-14T04:43:35.400Z,949.45
2018-11-14T04:44:35.829Z,949.45
2018-11-14T04:45:36.618Z,949.44
2018-11-14T04:46:37.695Z,949.43
2018-11-14T04:47:38.493Z,949.41
2018-11-14T04:48:38.993Z,949.42
2018-11-14T04:49:39.506Z,949.41
2018-11-14T04:50:40.130Z,949.43
2018-11-14T04:51:40.475Z,949.43
2018-11-14T04:52:41.103Z,949.43
2018-11-14T04:53:41.448Z,949.45
2018-11-14T04:54:42.564Z,949.43
2018-11-14T04:55:42.914Z,949.46
2018-11-14T04:56:43.704Z,949.44
2018-11-14T04:57:44.772Z,949.44
2018-11-14T04:58:45.567Z,949.45
2018-11-14T04:59:45.910Z,949.46
2018-11-14T05:00:46.981Z,949.45
2018-11-14T05:01:47.611Z,949.48
2018-11-14T05:02:47.958Z,949.47
2018-11-14T05:03:48.478Z,949.53
2018-11-14T05:04:48.882Z,949.5
2018-11-14T05:05:50.264Z,949.49
2018-11-14T05:06:51.163Z,949.48
2018-11-14T05:07:52.231Z,949.5
2018-11-14T05:08:52.593Z,949.5
2018-11-14T05:09:53.948Z,949.46
2018-11-14T05:10:54.458Z,949.46
2018-11-14T05:11:55.249Z,949.45
2018-11-14T05:12:56.484Z,949.41
2018-11-14T05:13:57.006Z,949.41
2018-11-14T05:14:57.701Z,949.4
2018-11-14T05:15:59.046Z,949.42
2018-11-14T05:17:00.229Z,949.37
2018-11-14T05:18:01.128Z,949.36
2018-11-14T05:19:01.482Z,949.38
2018-11-14T05:20:01.989Z,949.36
2018-11-14T05:21:03.085Z,949.37
2018-11-14T05:22:03.592Z,949.41
2018-11-14T05:23:04.388Z,949.39
2018-11-14T05:24:05.734Z,949.35
2018-11-14T05:25:06.176Z,949.33
2018-11-14T05:26:06.520Z,949.38
2018-11-14T05:27:18.980Z,949.35
2018-11-14T05:28:19.536Z,949.36
2018-11-14T05:29:20.887Z,949.38
2018-11-14T05:30:21.685Z,949.39
2018-11-14T05:31:22.751Z,949.37
2018-11-14T05:32:23.984Z,949.34
2018-11-14T05:33:24.775Z,949.34
2018-11-14T05:34:25.566Z,949.36
2018-11-14T05:35:26.653Z,949.3
2018-11-14T05:36:27.043Z,949.3
2018-11-14T05:37:27.667Z,949.27
2018-11-14T05:38:28.781Z,949.28
2018-11-14T05:39:29.183Z,949.3
2018-11-14T05:40:29.926Z,949.26
2018-11-14T05:41:30.724Z,949.3
2018-11-14T05:42:31.229Z,949.32
2018-11-14T05:43:32.025Z,949.34
2018-11-14T05:44:32.534Z,949.32
2018-11-14T05:45:33.870Z,949.32
2018-11-14T05:46:34.625Z,949.33
2018-11-14T05:47:35.312Z,949.33
2018-11-14T05:48:36.265Z,949.27
2018-11-14T05:49:37.336Z,949.29
2018-11-14T05:50:38.126Z,949.29
2018-11-14T05:51:38.917Z,949.3
2018-11-14T05:52:40.430Z,949.26
2018-11-14T05:53:41.219Z,949.28
2018-11-14T05:54:42.303Z,949.34
2018-11-14T05:55:43.125Z,949.36
2018-11-14T05:56:44.195Z,949.37
2018-11-14T05:57:45.266Z,949.4
2018-11-14T05:58:46.132Z,949.42
2018-11-14T05:59:47.342Z,949.42
2018-11-14T06:00:48.257Z,949.41
2018-11-14T06:01:49.052Z,949.43
2018-11-14T06:02:49.838Z,949.44
2018-11-14T06:03:50.363Z,949.39
2018-11-14T06:04:50.987Z,949.42
2018-11-14T06:05:52.056Z,949.4
2018-11-14T06:06:52.862Z,949.4
2018-11-14T06:07:54.081Z,949.4
2018-11-14T06:08:54.733Z,949.4
2018-11-14T06:09:55.248Z,949.37
2018-11-14T06:10:57.222Z,949.38
2018-11-14T06:12:01.598Z,949.34
2018-11-14T06:13:03.800Z,949.35
2018-11-14T06:13:14.369Z,949.3
2018-11-14T06:13:26.531Z,949.32
2018-11-14T06:13:38.311Z,949.3
2018-11-14T06:13:50.522Z,949.3
2018-11-14T06:14:02.214Z,949.31
2018-11-14T06:14:13.872Z,949.32
2018-11-14T06:14:25.631Z,949.31
2018-11-14T06:14:37.585Z,949.29
2018-11-14T06:14:49.749Z,949.32
2018-11-14T06:15:01.678Z,949.28
2018-11-14T06:15:14.210Z,949.32
2018-11-14T06:15:26.023Z,949.33
2018-11-14T06:15:37.747Z,949.33
2018-11-14T06:15:50.447Z,949.29
2018-11-14T06:16:07.928Z,949.28
2018-11-14T06:16:19.781Z,949.28
2018-11-14T06:17:21.733Z,949.31
2018-11-14T06:17:32.619Z,949.31
2018-11-14T06:17:44.779Z,949.29
2018-11-14T06:18:46.774Z,949.28
2018-11-14T06:18:57.286Z,949.28
2018-11-14T06:19:09.189Z,949.31
2018-11-14T06:20:09.926Z,949.34
2018-11-14T06:21:10.996Z,949.28
2018-11-14T06:22:11.511Z,949.3
2018-11-14T06:23:12.300Z,949.3
2018-11-14T06:24:13.375Z,949.28
2018-11-14T06:25:14.101Z,949.29
2018-11-14T06:26:14.733Z,949.32
2018-11-14T06:27:15.515Z,949.32
2018-11-14T06:28:15.862Z,949.35
2018-11-14T06:29:16.227Z,949.3
2018-11-14T06:30:17.198Z,949.26
2018-11-14T06:31:17.709Z,949.25
2018-11-14T06:32:18.779Z,949.28
2018-11-14T06:33:19.572Z,949.28
2018-11-14T06:34:20.365Z,949.29
2018-11-14T06:35:21.448Z,949.25
2018-11-14T06:36:22.241Z,949.29
2018-11-14T06:37:23.311Z,949.3
2018-11-14T06:38:24.105Z,949.31
2018-11-14T06:39:25.182Z,949.28
2018-11-14T06:40:26.031Z,949.28
2018-11-14T06:41:27.421Z,949.25
2018-11-14T06:42:28.511Z,949.24
2018-11-14T06:43:29.584Z,949.24
2018-11-14T06:44:30.380Z,949.23
2018-11-14T06:45:32.416Z,949.26
2018-11-14T06:46:34.778Z,949.24
2018-11-14T06:47:35.932Z,949.25
2018-11-14T06:48:36.504Z,949.27
2018-11-14T06:49:37.296Z,949.29
2018-11-14T06:50:38.247Z,949.27
2018-11-14T06:51:39.322Z,949.25
2018-11-14T06:52:40.114Z,949.24
2018-11-14T06:53:41.187Z,949.24
2018-11-14T06:54:42.275Z,949.22
2018-11-14T06:55:43.624Z,949.23
2018-11-14T06:56:44.250Z,949.21
2018-11-14T06:57:45.045Z,949.19
2018-11-14T06:58:46.041Z,949.23
2018-11-14T06:59:46.276Z,949.22
2018-11-14T07:00:46.908Z,949.18
2018-11-14T07:01:48.265Z,949.21
2018-11-14T07:02:49.338Z,949.23
2018-11-14T07:03:50.544Z,949.23
2018-11-14T07:04:51.216Z,949.29
2018-11-14T07:05:52.307Z,949.25
2018-11-14T07:06:53.157Z,949.29
2018-11-14T07:07:54.007Z,949.21
2018-11-14T07:08:55.061Z,949.19
2018-11-14T07:09:56.238Z,949.28
2018-11-14T07:10:57.377Z,949.24
2018-11-14T07:11:58.591Z,949.28
2018-11-14T07:12:59.466Z,949.26
2018-11-14T07:13:59.945Z,949.25
2018-11-14T07:15:01.191Z,949.27
2018-11-14T07:16:02.649Z,949.27
2018-11-14T07:17:03.213Z,949.26
2018-11-14T07:18:03.936Z,949.21
2018-11-14T07:19:04.535Z,949.19
2018-11-14T07:20:06.215Z,949.19
2018-11-14T07:21:07.073Z,949.17
2018-11-14T07:22:08.061Z,949.21
2018-11-14T07:23:08.576Z,949.16
2018-11-14T07:24:09.198Z,949.19
2018-11-14T07:25:09.816Z,949.23
2018-11-14T07:26:10.813Z,949.21
2018-11-14T07:27:12.943Z,949.23
2018-11-14T07:28:14.359Z,949.21
2018-11-14T07:29:15.474Z,949.24
2018-11-14T07:30:17.093Z,949.17
2018-11-14T07:31:17.625Z,949.18
2018-11-14T07:32:18.533Z,949.16
2018-11-14T07:33:20.036Z,949.14
2018-11-14T07:34:21.385Z,949.17
2018-11-14T07:35:22.140Z,949.18
2018-11-14T07:36:22.968Z,949.22
2018-11-14T07:37:24.207Z,949.24
2018-11-14T07:38:25.701Z,949.19
2018-11-14T07:39:25.850Z,949.25
2018-11-14T07:40:26.495Z,949.24
2018-11-14T07:41:28.367Z,949.21
2018-11-14T07:41:39.616Z,949.22
2018-11-14T07:42:40.241Z,949.23
2018-11-14T07:43:41.161Z,949.24
2018-11-14T07:44:43.514Z,949.26
2018-11-14T07:44:54.481Z,949.25
2018-11-14T07:45:07.075Z,949.24
2018-11-14T07:45:19.578Z,949.23
2018-11-14T07:46:19.916Z,949.29
2018-11-14T07:47:21.402Z,949.29
2018-11-14T07:48:22.500Z,949.26
2018-11-14T07:49:23.290Z,949.3
2018-11-14T07:50:24.088Z,949.3
2018-11-14T07:51:24.889Z,949.28
2018-11-14T07:52:25.792Z,949.32
2018-11-14T07:53:27.030Z,949.25
2018-11-14T07:54:27.948Z,949.26
2018-11-14T07:55:28.439Z,949.25
2018-11-14T07:56:29.279Z,949.27
2018-11-14T07:57:30.349Z,949.26
2018-11-14T07:58:30.866Z,949.21
2018-11-14T07:59:31.943Z,949.18
2018-11-14T08:00:33.454Z,949.19
2018-11-14T08:01:34.532Z,949.18
2018-11-14T08:02:35.334Z,949.17
2018-11-14T08:03:36.132Z,949.17
2018-11-14T08:04:36.932Z,949.17
2018-11-14T08:05:38.006Z,949.13
2018-11-14T08:06:39.247Z,949.12
2018-11-14T08:07:39.599Z,949.11
2018-11-14T08:08:39.949Z,949.08
2018-11-14T08:09:41.043Z,949.07
2018-11-14T08:10:41.564Z,949.02
2018-11-14T08:11:42.473Z,949.07
2018-11-14T08:12:42.832Z,949.09
2018-11-14T08:13:43.914Z,949.06
2018-11-14T08:14:44.549Z,949.08
2018-11-14T08:15:45.617Z,949.11
2018-11-14T08:16:46.179Z,949.07
2018-11-14T08:17:46.977Z,949.09
2018-11-14T08:18:47.565Z,949.1
2018-11-14T08:19:48.226Z,949.1
2018-11-14T08:20:49.025Z,949.14
2018-11-14T08:21:49.821Z,949.09
2018-11-14T08:22:50.365Z,949.1
2018-11-14T08:23:50.719Z,949.11
2018-11-14T08:24:51.575Z,949.11
2018-11-14T08:25:52.717Z,949.09
2018-11-14T08:26:53.399Z,949.1
2018-11-14T08:27:53.918Z,949.09
2018-11-14T08:28:54.433Z,949.08
2018-11-14T08:29:55.273Z,949.06
2018-11-14T08:30:55.907Z,949.04
2018-11-14T08:31:56.712Z,949.04
2018-11-14T08:32:57.946Z,948.99
2018-11-14T08:33:58.590Z,948.98
2018-11-14T08:35:00.128Z,948.92
2018-11-14T08:36:01.644Z,948.92
2018-11-14T08:37:02.655Z,948.9
2018-11-14T08:38:03.020Z,948.88
2018-11-14T08:39:04.703Z,948.88
2018-11-14T08:40:04.871Z,948.89
2018-11-14T08:41:06.227Z,948.93
2018-11-14T08:42:07.140Z,948.97
2018-11-14T08:43:08.215Z,949.01
2018-11-14T08:44:09.013Z,948.98
2018-11-14T08:45:10.092Z,949
2018-11-14T08:46:11.207Z,949
2018-11-14T08:47:12.334Z,949.02
2018-11-14T08:48:12.854Z,948.97
2018-11-14T08:49:14.366Z,948.98
2018-11-14T08:49:25.663Z,948.96
2018-11-14T08:50:26.643Z,948.95
2018-11-14T08:51:27.665Z,948.96
2018-11-14T08:52:28.494Z,948.97
2018-11-14T08:53:30.151Z,948.99
2018-11-14T08:53:41.630Z,949.04
2018-11-14T08:54:41.993Z,948.99
2018-11-14T08:55:43.238Z,949.02
2018-11-14T08:56:44.488Z,948.98
2018-11-14T08:57:45.615Z,949.01
2018-11-14T08:58:46.336Z,948.98
2018-11-14T08:59:46.866Z,949.04
2018-11-14T09:00:49.500Z,949.04
2018-11-14T09:01:00.154Z,949.01
2018-11-14T09:02:00.678Z,949.05
2018-11-14T09:03:01.922Z,949
2018-11-14T09:04:03.257Z,948.95
2018-11-14T09:05:03.902Z,948.94
2018-11-14T09:06:04.993Z,948.95
2018-11-14T09:07:05.925Z,948.92
2018-11-14T09:08:06.506Z,948.89
2018-11-14T09:09:07.931Z,948.88
2018-11-14T09:10:09.007Z,948.85
2018-11-14T09:11:09.977Z,948.86
2018-11-14T09:12:10.663Z,948.82
2018-11-14T09:13:11.076Z,948.84
2018-11-14T09:14:12.039Z,948.83
2018-11-14T09:15:13.641Z,948.82
2018-11-14T09:16:14.023Z,948.8
2018-11-14T09:17:14.494Z,948.8
2018-11-14T09:18:15.752Z,948.81
2018-11-14T09:19:16.961Z,948.81
2018-11-14T09:20:17.320Z,948.85
2018-11-14T09:21:17.961Z,948.86
2018-11-14T09:22:18.836Z,948.88
2018-11-14T09:23:21.013Z,948.87
2018-11-14T09:24:21.399Z,948.87
2018-11-14T09:25:22.207Z,948.85
2018-11-14T09:26:22.560Z,948.81
2018-11-14T09:27:23.349Z,948.83
2018-11-14T09:28:24.597Z,948.8
2018-11-14T09:29:25.229Z,948.78
2018-11-14T09:30:26.478Z,948.78
2018-11-14T09:31:27.284Z,948.78
2018-11-14T09:32:27.851Z,948.82
2018-11-14T09:33:28.486Z,948.8
2018-11-14T09:34:30.798Z,948.83
2018-11-14T09:34:41.942Z,948.86
2018-11-14T09:34:53.648Z,948.81
2018-11-14T09:35:06.436Z,948.8
2018-11-14T09:35:18.988Z,948.83
2018-11-14T09:35:30.601Z,948.86
2018-11-14T09:35:44.024Z,948.84
2018-11-14T09:35:55.975Z,948.82
2018-11-14T09:36:07.794Z,948.82
2018-11-14T09:36:19.834Z,948.82
2018-11-14T09:37:21.461Z,948.86
2018-11-14T09:37:32.553Z,948.84
2018-11-14T09:37:45.547Z,948.86
2018-11-14T09:38:46.384Z,948.86
2018-11-14T09:39:47.624Z,948.87
2018-11-14T09:40:48.498Z,948.84
2018-11-14T09:41:48.797Z,948.87
2018-11-14T09:42:49.600Z,948.86
2018-11-14T09:43:50.402Z,948.82
2018-11-14T09:44:51.533Z,948.79
2018-11-14T09:45:52.052Z,948.86
2018-11-14T09:46:53.134Z,948.82
2018-11-14T09:47:54.265Z,948.83
2018-11-14T09:48:55.162Z,948.85
2018-11-14T09:49:55.967Z,948.8
2018-11-14T09:50:57.317Z,948.79
2018-11-14T09:51:58.563Z,948.8
2018-11-14T09:52:59.662Z,948.81
2018-11-14T09:54:00.382Z,948.79
2018-11-14T09:55:01.171Z,948.83
2018-11-14T09:56:03.072Z,948.82
2018-11-14T09:56:14.543Z,948.8
2018-11-14T09:56:27.150Z,948.81
2018-11-14T09:56:39.160Z,948.82
2018-11-14T09:56:51.103Z,948.77
2018-11-14T09:57:03.809Z,948.8
2018-11-14T09:57:15.609Z,948.74
2018-11-14T09:57:27.568Z,948.77
2018-11-14T09:57:39.945Z,948.76
2018-11-14T09:58:40.949Z,948.76
2018-11-14T09:59:42.152Z,948.73
2018-11-14T10:00:43.929Z,948.69
2018-11-14T10:01:44.462Z,948.69
2018-11-14T10:02:45.826Z,948.66
2018-11-14T10:03:46.668Z,948.69
2018-11-14T10:04:47.467Z,948.72
2018-11-14T10:05:48.626Z,948.66
2018-11-14T10:06:49.105Z,948.67
2018-11-14T10:07:50.573Z,948.64
2018-11-14T10:08:51.018Z,948.63
2018-11-14T10:09:52.520Z,948.63
2018-11-14T10:10:53.961Z,948.59
2018-11-14T10:11:54.382Z,948.55
2018-11-14T10:12:55.457Z,948.53
2018-11-14T10:13:56.321Z,948.56
2018-11-14T10:14:57.395Z,948.52
2018-11-14T10:15:58.488Z,948.52
2018-11-14T10:16:59.734Z,948.52
2018-11-14T10:18:00.527Z,948.52
2018-11-14T10:19:01.145Z,948.47
2018-11-14T10:20:02.222Z,948.45
2018-11-14T10:21:03.087Z,948.43
2018-11-14T10:22:04.241Z,948.38
2018-11-14T10:23:05.320Z,948.38
2018-11-14T10:24:06.125Z,948.38
2018-11-14T10:25:07.487Z,948.35
2018-11-14T10:26:08.346Z,948.33
2018-11-14T10:27:09.500Z,948.29
2018-11-14T10:28:10.302Z,948.27
2018-11-14T10:29:11.163Z,948.3
2018-11-14T10:30:11.992Z,948.34
2018-11-14T10:31:12.838Z,948.37
2018-11-14T10:32:13.920Z,948.38
2018-11-14T10:33:14.725Z,948.33
2018-11-14T10:34:15.804Z,948.31
2018-11-14T10:35:16.603Z,948.28
2018-11-14T10:36:16.969Z,948.23
2018-11-14T10:37:17.326Z,948.24
2018-11-14T10:38:18.158Z,948.22
2018-11-14T10:39:19.669Z,948.21
2018-11-14T10:40:20.762Z,948.18
2018-11-14T10:41:21.285Z,948.14
2018-11-14T10:42:22.647Z,948.15
2018-11-14T10:43:23.370Z,948.14
2018-11-14T10:44:24.024Z,948.11
2018-11-14T10:45:24.597Z,948.12
2018-11-14T10:46:25.667Z,948.12
2018-11-14T10:47:26.685Z,948.08
2018-11-14T10:48:28.143Z,948.05
2018-11-14T10:49:28.957Z,948.06
2018-11-14T10:50:30.192Z,948.04
2018-11-14T10:51:31.604Z,948.06
2018-11-14T10:52:33.225Z,948.01
2018-11-14T10:53:33.649Z,948.02
2018-11-14T10:54:34.778Z,947.99
2018-11-14T10:55:36.159Z,948.04
2018-11-14T10:56:37.319Z,948.05
2018-11-14T10:57:37.971Z,948.01
2018-11-14T10:58:38.564Z,947.99
2018-11-14T10:59:39.754Z,947.97
2018-11-14T11:00:40.568Z,947.95
2018-11-14T11:01:41.355Z,947.92
2018-11-14T11:02:42.585Z,947.9
2018-11-14T11:03:43.217Z,947.86
2018-11-14T11:04:43.767Z,947.85
2018-11-14T11:05:44.765Z,947.82
2018-11-14T11:06:46.089Z,947.81
2018-11-14T11:07:47.386Z,947.84
2018-11-14T11:08:48.404Z,947.81
2018-11-14T11:09:49.206Z,947.81
2018-11-14T11:10:49.730Z,947.83
2018-11-14T11:11:50.721Z,947.85
2018-11-14T11:12:51.558Z,947.85
2018-11-14T11:13:52.699Z,947.81
2018-11-14T11:14:53.433Z,947.82
2018-11-14T11:15:54.897Z,947.83
2018-11-14T11:16:55.304Z,947.8
2018-11-14T11:17:56.142Z,947.83
2018-11-14T11:18:56.945Z,947.81
2018-11-14T11:19:57.401Z,947.82
2018-11-14T11:20:58.204Z,947.83
2018-11-14T11:21:59.942Z,947.83
2018-11-14T11:23:00.758Z,947.81
2018-11-14T11:24:02.206Z,947.89
2018-11-14T11:25:02.559Z,947.86
2018-11-14T11:26:03.667Z,947.83
2018-11-14T11:27:04.327Z,947.83
2018-11-14T11:28:05.411Z,947.83
2018-11-14T11:29:06.773Z,947.82
2018-11-14T11:30:07.356Z,947.83
2018-11-14T11:31:08.190Z,947.85
2018-11-14T11:32:09.797Z,947.85
2018-11-14T11:33:10.321Z,947.84
2018-11-14T11:34:11.003Z,947.82
2018-11-14T11:35:11.648Z,947.83
2018-11-14T11:36:12.884Z,947.85
2018-11-14T11:37:13.735Z,947.88
2018-11-14T11:38:14.602Z,947.82
2018-11-14T11:39:15.346Z,947.84
2018-11-14T11:40:16.546Z,947.81
2018-11-14T11:41:17.794Z,947.78
2018-11-14T11:42:19.190Z,947.8
2018-11-14T11:43:19.718Z,947.77
2018-11-14T11:44:20.581Z,947.76
2018-11-14T11:45:21.345Z,947.77
2018-11-14T11:46:22.650Z,947.74
2018-11-14T11:47:23.283Z,947.78
2018-11-14T11:48:24.549Z,947.8
2018-11-14T11:49:25.637Z,947.75
2018-11-14T11:50:26.223Z,947.71
2018-11-14T11:51:28.836Z,947.68
2018-11-14T11:52:29.387Z,947.7
2018-11-14T11:53:30.011Z,947.76
2018-11-14T11:54:31.564Z,947.73
2018-11-14T11:55:32.208Z,947.75
2018-11-14T11:56:32.735Z,947.75
2018-11-14T11:57:33.639Z,947.72
2018-11-14T11:58:34.255Z,947.75
2018-11-14T11:59:34.861Z,947.72
2018-11-14T12:00:21.804Z,947.7
2018-11-14T12:01:22.469Z,947.65
2018-11-14T12:02:23.872Z,947.63
2018-11-14T12:03:24.502Z,947.64
2018-11-14T12:04:25.074Z,947.63
2018-11-14T12:05:25.709Z,947.63